Time;durP1;ratioP1;P1;durP2;ratioP2;P2;SDS_P1;SDS_P2;PMS_P1;PMS_P2;Temp;Humidity;BMP_temperature;BMP_pressure;BME280_temperature;BME280_humidity;BME280_pressure;Samples;Min_cycle;Max_cycle;Signal;HPM_P1;HPM_P2
2022/09/04 00:01:54;;;;;;;16.90;11.93;;;13.20;99.90;;;;;;5114332;28;20199;-75
2022/09/04 00:04:29;;;;;;;15.63;11.00;;;13.20;99.90;;;;;;5114166;28;20203;-75
2022/09/04 00:07:13;;;;;;;17.83;11.77;;;13.20;99.90;;;;;;5114045;28;20219;-75
2022/09/04 00:09:48;;;;;;;21.70;13.43;;;13.20;99.90;;;;;;5114241;28;20204;-75
2022/09/04 00:12:22;;;;;;;17.57;12.57;;;13.20;99.90;;;;;;5114178;28;20208;-75
2022/09/04 00:14:54;;;;;;;16.07;11.93;;;13.20;99.90;;;;;;5114119;28;20195;-75
2022/09/04 00:17:29;;;;;;;17.57;12.10;;;13.10;99.90;;;;;;5113071;28;20195;-75
2022/09/04 00:20:01;;;;;;;17.63;12.23;;;13.10;99.90;;;;;;5114151;28;20199;-75
2022/09/04 00:22:35;;;;;;;16.40;10.63;;;13.20;99.90;;;;;;5114027;28;20202;-75
2022/09/04 00:25:11;;;;;;;13.50;11.20;;;13.20;99.90;;;;;;5113918;28;20192;-75
2022/09/04 00:27:44;;;;;;;11.23;9.83;;;13.20;99.90;;;;;;5113693;28;20240;-75
2022/09/04 00:30:15;;;;;;;12.57;11.17;;;13.20;99.90;;;;;;5113891;28;20207;-75
2022/09/04 00:32:50;;;;;;;15.70;11.77;;;13.20;99.90;;;;;;5113867;28;20199;-75
2022/09/04 00:35:22;;;;;;;17.07;11.57;;;13.20;99.90;;;;;;5113844;28;20287;-75
2022/09/04 00:37:56;;;;;;;17.37;11.27;;;13.10;99.90;;;;;;5113724;28;20264;-75
2022/09/04 00:40:28;;;;;;;12.60;10.87;;;13.10;99.90;;;;;;5113542;28;20728;-75
2022/09/04 00:43:26;;;;;;;15.80;10.80;;;13.10;99.90;;;;;;5113813;28;20245;-76
2022/09/04 00:46:08;;;;;;;16.37;11.63;;;13.10;99.90;;;;;;5113451;28;20662;-75
2022/09/04 00:49:05;;;;;;;14.80;11.07;;;13.00;99.90;;;;;;5113431;28;20200;-75
2022/09/04 00:51:43;;;;;;;17.23;12.00;;;13.00;99.90;;;;;;5099504;28;20192;-75
2022/09/04 00:54:34;;;;;;;22.27;14.70;;;12.90;99.90;;;;;;5113448;28;20224;-75
2022/09/04 00:57:34;;;;;;;17.50;12.23;;;12.90;99.90;;;;;;5113223;28;20195;-75
2022/09/04 01:00:08;;;;;;;17.37;12.10;;;12.90;99.90;;;;;;5113390;28;20196;-75
2022/09/04 01:02:57;;;;;;;18.30;12.57;;;12.80;99.90;;;;;;5113372;28;20229;-75
2022/09/04 01:05:39;;;;;;;19.43;12.77;;;12.80;99.90;;;;;;5113223;28;20236;-75
2022/09/04 01:08:14;;;;;;;16.20;12.13;;;12.70;99.90;;;;;;5113376;28;20616;-75
2022/09/04 01:10:50;;;;;;;20.30;11.10;;;12.70;99.90;;;;;;5113121;28;20607;-75
2022/09/04 01:13:26;;;;;;;17.13;11.73;;;12.70;99.90;;;;;;5113090;28;20672;-75
2022/09/04 01:16:00;;;;;;;17.83;13.27;;;12.70;99.90;;;;;;5113097;28;20256;-75
2022/09/04 01:18:32;;;;;;;22.10;14.30;;;12.60;99.90;;;;;;5113321;28;20204;-76
2022/09/04 01:21:44;;;;;;;23.77;14.43;;;12.60;99.90;;;;;;5113194;28;20192;-76
2022/09/04 01:24:24;;;;;;;20.60;13.60;;;12.60;99.90;;;;;;5113303;28;20289;-75
2022/09/04 01:27:00;;;;;;;20.97;14.13;;;12.50;99.90;;;;;;5113046;28;20231;-75
2022/09/04 01:29:38;;;;;;;20.53;13.70;;;12.50;99.90;;;;;;5115592;28;20228;-75
2022/09/04 01:32:12;;;;;;;21.93;13.90;;;12.40;99.90;;;;;;5117209;28;20191;-75
2022/09/04 01:34:50;;;;;;;26.57;14.43;;;12.40;99.90;;;;;;5117481;28;20252;-75
2022/09/04 01:37:34;;;;;;;20.37;13.20;;;12.40;99.90;;;;;;5117211;28;20192;-75
2022/09/04 01:40:18;;;;;;;23.03;13.43;;;12.30;99.90;;;;;;5117040;28;20647;-76
2022/09/04 01:42:52;;;;;;;19.90;12.93;;;12.30;99.90;;;;;;5116880;28;20597;-76
2022/09/04 01:45:29;;;;;;;22.53;12.93;;;12.20;99.90;;;;;;5116863;28;20585;-75
2022/09/04 01:48:02;;;;;;;21.30;12.53;;;12.20;99.90;;;;;;5116970;28;20226;-75
2022/09/04 01:50:31;;;;;;;22.67;13.07;;;12.10;99.90;;;;;;5116908;28;20245;-75
2022/09/04 01:53:05;;;;;;;21.23;14.10;;;12.20;99.90;;;;;;5116788;28;20264;-75
2022/09/04 01:55:37;;;;;;;19.60;13.37;;;12.20;99.90;;;;;;5116530;28;20613;-76
2022/09/04 01:58:15;;;;;;;18.90;13.13;;;12.30;99.90;;;;;;5116618;28;20601;-75
2022/09/04 02:00:52;;;;;;;15.97;12.23;;;12.20;99.90;;;;;;5116659;28;20248;-75
2022/09/04 02:03:26;;;;;;;18.17;11.63;;;12.30;99.90;;;;;;5116599;28;20268;-75
2022/09/04 02:06:02;;;;;;;16.70;12.63;;;12.20;99.90;;;;;;5116507;28;20200;-75
2022/09/04 02:08:46;;;;;;;18.03;11.43;;;12.20;99.90;;;;;;5116587;28;20567;-75
2022/09/04 02:11:16;;;;;;;18.43;12.27;;;12.20;99.90;;;;;;5116470;28;20240;-75
2022/09/04 02:14:09;;;;;;;18.97;11.87;;;12.20;99.90;;;;;;5116469;28;20192;-76
2022/09/04 02:16:45;;;;;;;18.07;12.30;;;12.20;99.90;;;;;;5116570;28;20245;-75
2022/09/04 02:19:26;;;;;;;15.07;10.27;;;12.20;99.90;;;;;;5116518;28;20260;-76
2022/09/04 02:22:02;;;;;;;15.07;10.43;;;12.20;99.90;;;;;;5116298;28;20191;-75
2022/09/04 02:24:39;;;;;;;18.37;10.70;;;12.30;99.90;;;;;;5116132;28;20204;-75
2022/09/04 02:27:10;;;;;;;12.70;9.40;;;12.30;99.90;;;;;;5116237;28;20223;-75
2022/09/04 02:29:46;;;;;;;11.13;9.23;;;12.40;99.90;;;;;;5116464;28;20196;-75
2022/09/04 02:32:18;;;;;;;10.90;9.10;;;12.50;99.90;;;;;;5116083;28;20199;-76
2022/09/04 02:34:53;;;;;;;10.93;8.00;;;12.50;99.90;;;;;;5116023;28;20200;-75
2022/09/04 02:37:27;;;;;;;10.30;8.40;;;12.50;99.90;;;;;;5116088;28;20248;-75
2022/09/04 02:40:03;;;;;;;8.93;7.83;;;12.50;99.90;;;;;;5115413;28;20252;-75
2022/09/04 02:42:39;;;;;;;9.17;7.40;;;12.40;99.90;;;;;;5115914;28;20207;-75
2022/09/04 02:45:19;;;;;;;8.83;7.40;;;12.50;99.90;;;;;;5116423;27;20277;-74
2022/09/04 02:47:52;;;;;;;9.13;7.23;;;12.60;99.90;;;;;;5115713;28;20756;-75
2022/09/04 02:50:38;;;;;;;9.60;8.53;;;12.60;99.90;;;;;;5115866;28;20195;-75
2022/09/04 02:53:13;;;;;;;12.33;8.20;;;12.70;99.90;;;;;;5115755;28;20249;-76
2022/09/04 02:55:56;;;;;;;9.47;7.70;;;12.70;99.90;;;;;;5115395;28;20235;-75
2022/09/04 02:58:43;;;;;;;12.23;8.27;;;12.70;99.90;;;;;;5115754;28;20244;-75
2022/09/04 03:01:19;;;;;;;9.97;8.40;;;12.70;99.90;;;;;;5115616;28;20331;-75
2022/09/04 03:03:51;;;;;;;9.70;8.70;;;12.80;99.90;;;;;;5115487;28;20202;-75
2022/09/04 03:06:23;;;;;;;10.50;8.50;;;12.70;99.90;;;;;;5115320;28;20681;-75
2022/09/04 03:08:55;;;;;;;9.77;7.93;;;12.70;99.90;;;;;;5115722;28;20227;-75
2022/09/04 03:11:31;;;;;;;13.33;9.37;;;12.70;99.90;;;;;;5115391;28;20199;-75
2022/09/04 03:14:03;;;;;;;17.30;9.13;;;12.70;99.90;;;;;;5115351;28;20219;-76
2022/09/04 03:16:37;;;;;;;11.63;8.73;;;12.60;99.90;;;;;;5115046;28;20204;-76
2022/09/04 03:19:13;;;;;;;12.70;8.53;;;12.60;99.90;;;;;;5115353;28;20264;-75
2022/09/04 03:21:46;;;;;;;11.73;8.70;;;12.50;99.90;;;;;;5115414;28;20204;-76
2022/09/04 03:24:22;;;;;;;14.27;9.50;;;12.50;99.90;;;;;;5115029;28;20716;-75
2022/09/04 03:26:52;;;;;;;12.53;9.43;;;12.30;99.90;;;;;;5115025;27;20251;-75
2022/09/04 03:29:30;;;;;;;15.33;10.27;;;12.30;99.90;;;;;;5115178;28;20200;-75
2022/09/04 03:32:07;;;;;;;13.13;10.20;;;12.30;99.90;;;;;;5115053;28;20272;-75
2022/09/04 03:34:47;;;;;;;13.07;10.27;;;12.30;99.90;;;;;;5114742;28;20658;-75
2022/09/04 03:37:26;;;;;;;13.33;10.67;;;12.30;99.90;;;;;;5114788;28;20200;-76
2022/09/04 03:40:05;;;;;;;13.97;10.50;;;12.30;99.90;;;;;;5114922;28;20244;-76
2022/09/04 03:42:40;;;;;;;13.43;9.50;;;12.20;99.90;;;;;;5114599;28;20687;-75
2022/09/04 03:45:18;;;;;;;12.40;9.73;;;12.20;99.90;;;;;;5114793;28;20257;-75
2022/09/04 03:47:58;;;;;;;12.73;9.80;;;12.10;99.90;;;;;;5114428;28;20220;-76
2022/09/04 03:50:34;;;;;;;13.93;10.20;;;12.10;99.90;;;;;;5114707;28;20195;-76
2022/09/04 03:53:08;;;;;;;14.37;10.27;;;12.00;99.90;;;;;;5114349;28;20638;-76
2022/09/04 03:56:05;;;;;;;17.33;10.80;;;12.00;99.90;;;;;;5114312;27;20223;-75
2022/09/04 03:58:42;;;;;;;18.57;11.70;;;11.90;99.90;;;;;;5114613;28;20200;-75
2022/09/04 04:01:20;;;;;;;16.70;11.37;;;11.90;99.90;;;;;;5114300;28;20719;-75
2022/09/04 04:04:04;;;;;;;15.83;10.83;;;11.80;99.90;;;;;;5114364;28;20602;-75
2022/09/04 04:06:43;;;;;;;18.73;10.77;;;11.90;99.90;;;;;;5114121;28;20727;-75
2022/09/04 04:09:35;;;;;;;13.83;10.17;;;11.80;99.90;;;;;;5114346;28;20253;-75
2022/09/04 04:12:20;;;;;;;14.23;10.50;;;11.90;99.90;;;;;;5114160;28;20229;-75
2022/09/04 04:15:02;;;;;;;14.33;10.13;;;11.80;99.90;;;;;;5114040;28;20196;-75
2022/09/04 04:17:53;;;;;;;13.27;9.60;;;11.80;99.90;;;;;;5114139;28;20218;-75
2022/09/04 04:20:38;;;;;;;12.87;10.03;;;11.80;99.90;;;;;;5114036;28;20245;-75
2022/09/04 04:23:46;;;;;;;13.00;9.53;;;11.70;99.90;;;;;;5113940;28;20252;-75
2022/09/04 04:26:21;;;;;;;16.13;10.63;;;11.70;99.90;;;;;;5113880;28;20192;-75
2022/09/04 04:29:07;;;;;;;12.20;10.30;;;11.70;99.90;;;;;;5113813;28;20223;-75
2022/09/04 04:31:45;;;;;;;14.67;10.07;;;11.80;99.90;;;;;;5113913;28;20209;-75
2022/09/04 04:34:22;;;;;;;18.27;10.57;;;11.80;99.90;;;;;;5113645;28;20762;-75
2022/09/04 04:36:56;;;;;;;14.07;10.37;;;11.90;99.90;;;;;;5113623;28;20720;-74
2022/09/04 04:39:31;;;;;;;13.33;10.37;;;11.80;99.90;;;;;;5113564;28;20729;-75
2022/09/04 04:42:16;;;;;;;16.80;10.27;;;11.90;99.90;;;;;;5113525;28;20191;-75
2022/09/04 04:48:09;;;;;;;14.70;9.47;;;12.00;99.90;;;;;;5113570;28;20299;-75
2022/09/04 04:50:46;;;;;;;12.87;9.60;;;12.00;99.90;;;;;;5113816;28;20250;-75
2022/09/04 04:53:25;;;;;;;15.17;9.70;;;12.00;99.90;;;;;;5113596;28;20199;-75
2022/09/04 04:55:59;;;;;;;13.00;9.63;;;12.00;99.90;;;;;;5113519;28;20253;-76
2022/09/04 04:58:52;;;;;;;14.50;10.43;;;12.10;99.90;;;;;;5113694;28;20195;-76
2022/09/04 05:01:31;;;;;;;13.80;10.23;;;12.20;99.90;;;;;;5113677;28;20195;-77
2022/09/04 05:04:08;;;;;;;14.27;10.40;;;12.20;99.90;;;;;;5113022;28;20268;-76
2022/09/04 05:06:41;;;;;;;14.47;10.30;;;12.30;99.90;;;;;;5113314;28;20200;-76
2022/09/04 05:09:16;;;;;;;13.07;10.20;;;12.40;99.90;;;;;;5113005;28;20227;-76
2022/09/04 05:11:52;;;;;;;13.80;9.93;;;12.40;99.90;;;;;;5113306;28;20191;-75
2022/09/04 05:14:30;;;;;;;12.10;9.90;;;12.50;99.90;;;;;;5113312;28;20199;-76
2022/09/04 05:17:05;;;;;;;11.20;9.03;;;12.60;99.90;;;;;;5113122;28;20199;-76
2022/09/04 05:19:38;;;;;;;13.67;10.17;;;12.80;99.90;;;;;;5112981;28;20203;-75
2022/09/04 05:22:14;;;;;;;12.80;10.17;;;12.80;99.90;;;;;;5113307;28;20225;-77
2022/09/04 05:24:51;;;;;;;12.43;9.07;;;12.90;99.90;;;;;;5113201;28;20203;-76
2022/09/04 05:27:38;;;;;;;11.13;8.73;;;12.90;99.90;;;;;;5113087;28;20555;-76
2022/09/04 05:30:09;;;;;;;9.60;7.40;;;13.00;99.90;;;;;;5113331;28;20214;-76
2022/09/04 05:32:39;;;;;;;9.13;7.00;;;13.10;99.90;;;;;;5113221;28;20199;-76
2022/09/04 05:35:15;;;;;;;7.43;6.73;;;13.20;99.90;;;;;;5113220;28;20195;-76
2022/09/04 05:37:50;;;;;;;7.23;6.53;;;13.30;99.90;;;;;;5113060;28;20249;-76
2022/09/04 05:40:27;;;;;;;7.80;6.83;;;13.50;99.90;;;;;;5113164;28;20191;-75
2022/09/04 05:43:06;;;;;;;7.37;6.67;;;13.60;99.90;;;;;;5113042;28;20203;-75
2022/09/04 05:45:48;;;;;;;6.80;6.10;;;13.80;99.90;;;;;;5112966;28;20195;-75
2022/09/04 05:48:24;;;;;;;8.10;6.13;;;13.80;99.90;;;;;;5112790;28;20579;-75
2022/09/04 05:51:05;;;;;;;6.87;5.90;;;13.90;99.90;;;;;;5112715;28;20199;-75
2022/09/04 05:53:56;;;;;;;6.40;5.80;;;13.90;99.90;;;;;;5113018;28;20203;-75
2022/09/04 05:56:48;;;;;;;6.47;5.70;;;14.00;99.90;;;;;;5112626;28;20239;-75
2022/09/04 05:59:37;;;;;;;7.13;5.97;;;14.20;99.90;;;;;;5112657;28;20248;-75
2022/09/04 06:02:39;;;;;;;6.17;5.57;;;14.20;99.90;;;;;;5112843;28;20196;-75
2022/09/04 06:05:29;;;;;;;6.27;5.30;;;14.30;99.90;;;;;;5112628;28;20266;-75
2022/09/04 06:08:06;;;;;;;5.90;5.30;;;14.40;99.90;;;;;;5112750;28;20249;-75
2022/09/04 06:10:46;;;;;;;5.90;5.40;;;14.50;99.90;;;;;;5112734;28;20643;-75
2022/09/04 06:13:40;;;;;;;6.60;5.17;;;14.70;99.90;;;;;;5112539;28;20253;-75
2022/09/04 06:16:30;;;;;;;6.13;5.53;;;14.80;99.90;;;;;;5114451;28;20196;-76
2022/09/04 06:19:14;;;;;;;5.83;5.33;;;14.80;99.90;;;;;;5116275;28;20664;-76
2022/09/04 06:22:14;;;;;;;6.73;5.60;;;14.90;99.90;;;;;;5116233;28;20794;-76
2022/09/04 06:25:04;;;;;;;7.37;6.67;;;14.90;99.90;;;;;;5109470;28;20247;-76
2022/09/04 06:27:43;;;;;;;7.93;6.70;;;15.00;99.90;;;;;;5116178;28;20200;-76
2022/09/04 06:30:12;;;;;;;8.53;6.97;;;15.00;99.90;;;;;;5115924;28;20226;-76
2022/09/04 06:33:05;;;;;;;7.13;6.47;;;15.10;99.90;;;;;;5116134;28;20199;-76
2022/09/04 06:35:46;;;;;;;10.63;6.57;;;15.40;99.90;;;;;;5116009;28;20203;-76
2022/09/04 06:38:25;;;;;;;7.47;6.37;;;15.60;99.90;;;;;;5116128;28;20229;-76
2022/09/04 06:41:07;;;;;;;7.60;6.90;;;15.70;99.90;;;;;;5116189;28;20187;-76
2022/09/04 06:43:41;;;;;;;8.33;7.40;;;15.80;99.90;;;;;;5116056;28;20200;-75
2022/09/04 06:46:21;;;;;;;6.60;6.00;;;16.00;99.90;;;;;;5116187;28;20249;-76
2022/09/04 06:48:59;;;;;;;7.40;6.70;;;16.20;99.90;;;;;;5115736;28;20613;-76
2022/09/04 06:51:42;;;;;;;6.78;5.97;;;16.30;99.90;;;;;;5115907;28;20198;-77
2022/09/04 06:54:17;;;;;;;7.47;6.78;;;16.20;99.90;;;;;;5115816;28;20199;-77
2022/09/04 06:57:03;;;;;;;7.95;6.43;;;16.20;99.90;;;;;;5115373;28;20698;-76
2022/09/04 07:00:01;;;;;;;7.57;6.85;;;16.20;99.90;;;;;;5115502;28;20200;-76
2022/09/04 07:02:55;;;;;;;6.63;6.03;;;16.20;99.90;;;;;;5115551;28;20536;-80
2022/09/04 07:05:29;;;;;;;8.57;7.60;;;16.30;99.90;;;;;;5074397;28;20196;-76
2022/09/04 07:08:08;;;;;;;8.90;8.00;;;16.20;99.90;;;;;;5115306;28;20195;-76
2022/09/04 07:10:39;;;;;;;10.10;9.10;;;16.20;99.90;;;;;;5115456;28;20199;-77
2022/09/04 07:13:46;;;;;;;8.80;7.90;;;16.20;99.90;;;;;;5115424;28;20253;-76
2022/09/04 07:16:30;;;;;;;11.00;8.38;;;16.40;99.90;;;;;;5103917;28;20199;-76
2022/09/04 07:19:17;;;;;;;11.05;8.63;;;16.60;99.90;;;;;;5115529;28;20200;-77
2022/09/04 07:21:54;;;;;;;9.38;8.50;;;16.80;99.90;;;;;;5115407;28;20195;-77
2022/09/04 07:24:46;;;;;;;9.32;8.43;;;17.00;99.90;;;;;;5114956;28;20201;-77
2022/09/04 07:27:20;;;;;;;10.65;9.65;;;17.20;99.90;;;;;;5114636;28;20225;-76
2022/09/04 07:29:52;;;;;;;10.25;8.52;;;17.60;99.90;;;;;;5114931;28;20720;-77
2022/09/04 07:32:24;;;;;;;9.43;8.52;;;18.00;99.90;;;;;;5114826;28;20694;-76
2022/09/04 07:34:59;;;;;;;11.00;9.90;;;18.30;99.90;;;;;;5114813;28;20707;-76
2022/09/04 07:37:35;;;;;;;10.02;9.02;;;18.60;99.90;;;;;;5114923;28;20195;-76
2022/09/04 07:40:10;;;;;;;9.60;8.70;;;18.80;99.90;;;;;;5114850;28;20203;-77
2022/09/04 07:42:43;;;;;;;9.85;8.85;;;18.90;99.90;;;;;;5114642;28;20562;-77
2022/09/04 07:45:21;;;;;;;10.73;8.55;;;19.30;99.90;;;;;;5114753;28;20253;-76
2022/09/04 07:47:57;;;;;;;9.05;8.20;;;19.70;99.90;;;;;;5114615;28;20598;-76
2022/09/04 07:50:31;;;;;;;8.70;7.90;;;19.90;99.90;;;;;;5114672;28;20222;-76
2022/09/04 07:53:18;;;;;;;10.98;8.77;;;20.00;99.90;;;;;;5114953;28;20207;-77
2022/09/04 07:55:46;;;;;;;10.13;8.50;;;20.10;99.90;;;;;;5114594;28;20228;-77
2022/09/04 07:58:50;;;;;;;9.63;8.68;;;20.00;99.90;;;;;;5115056;28;20203;-77
2022/09/04 08:01:38;;;;;;;8.95;8.05;;;19.90;99.90;;;;;;5114799;28;20636;-77
2022/09/04 08:04:43;;;;;;;8.63;7.72;;;20.30;99.90;;;;;;5114667;28;20191;-77
2022/09/04 08:07:19;;;;;;;8.07;7.30;;;20.80;99.90;;;;;;5102272;28;20217;-75
2022/09/04 08:10:11;;;;;;;7.93;7.20;;;21.00;99.90;;;;;;5114220;28;20222;-77
2022/09/04 08:12:55;;;;;;;12.13;6.63;;;21.30;99.90;;;;;;5114411;28;20261;-76
2022/09/04 08:15:33;;;;;;;7.50;6.80;;;21.70;99.90;;;;;;5114076;28;20234;-76
2022/09/04 08:18:23;;;;;;;6.28;5.68;;;21.60;99.90;;;;;;5113929;28;20693;-77
2022/09/04 08:21:01;;;;;;;5.97;5.47;;;21.90;99.90;;;;;;5113694;28;20199;-76
2022/09/04 08:23:58;;;;;;;6.22;5.43;;;21.80;99.90;;;;;;5113955;28;20248;-76
2022/09/04 08:26:33;;;;;;;5.90;5.40;;;22.20;99.90;;;;;;5113819;28;20191;-75
2022/09/04 08:29:22;;;;;;;5.70;5.05;;;22.30;99.90;;;;;;5113578;28;20291;-75
2022/09/04 08:32:03;;;;;;;5.00;4.60;;;22.20;99.90;;;;;;5113795;28;20198;-76
2022/09/04 08:34:47;;;;;;;6.38;4.60;;;22.10;99.90;;;;;;5113658;28;20206;-76
2022/09/04 08:37:24;;;;;;;5.00;4.50;;;22.00;99.90;;;;;;5113497;28;20217;-76
2022/09/04 08:40:15;;;;;;;5.32;4.25;;;22.10;99.90;;;;;;5113175;28;20202;-76
2022/09/04 08:43:08;;;;;;;5.88;5.13;;;22.60;99.90;;;;;;5113575;28;20347;-76
2022/09/04 08:46:14;;;;;;;4.93;4.53;;;22.80;99.90;;;;;;5113328;28;20229;-76
2022/09/04 08:49:10;;;;;;;4.32;3.92;;;23.00;99.90;;;;;;5113269;27;20706;-76
2022/09/04 08:52:21;;;;;;;4.40;4.00;;;23.50;99.90;;;;;;5113305;28;20203;-76
2022/09/04 08:55:20;;;;;;;3.50;3.20;;;23.50;99.90;;;;;;5075527;28;20285;-77
2022/09/04 08:58:17;;;;;;;4.47;4.07;;;23.60;99.90;;;;;;5112862;28;20198;-76
2022/09/04 09:01:14;;;;;;;3.63;3.33;;;23.90;99.90;;;;;;5113396;28;20210;-76
2022/09/04 09:04:17;;;;;;;3.00;2.80;;;24.20;99.90;;;;;;5113491;28;20195;-77
2022/09/04 09:07:07;;;;;;;4.72;3.08;;;24.40;99.90;;;;;;5113326;28;20195;-76
2022/09/04 09:09:59;;;;;;;2.70;2.50;;;24.70;99.90;;;;;;5113113;28;20231;-76
2022/09/04 09:12:53;;;;;;;2.72;2.53;;;24.90;99.90;;;;;;5113073;28;20196;-76
2022/09/04 09:15:41;;;;;;;2.53;2.33;;;24.90;99.90;;;;;;5112967;28;20708;-75
2022/09/04 09:18:24;;;;;;;4.07;2.40;;;25.20;99.90;;;;;;5113076;28;20203;-75
2022/09/04 09:21:00;;;;;;;2.80;2.20;;;24.80;99.90;;;;;;5112903;28;20658;-75
2022/09/04 09:24:01;;;;;;;2.92;2.50;;;24.50;99.90;;;;;;5113211;28;20259;-75
2022/09/04 09:26:29;;;;;;;2.90;2.70;;;25.40;99.90;;;;;;5112859;28;20199;-74
2022/09/04 09:29:29;;;;;;;3.20;2.30;;;25.80;99.90;;;;;;5109990;28;20643;-78
2022/09/04 09:32:30;;;;;;;2.35;2.15;;;25.90;99.90;;;;;;5110426;28;20203;-77
2022/09/04 09:35:45;;;;;;;1.90;1.77;;;26.70;99.90;;;;;;5110660;28;20611;-78
2022/09/04 09:38:49;;;;;;;2.50;1.90;;;27.20;99.90;;;;;;5110816;28;20196;-77
2022/09/04 09:41:59;;;;;;;2.13;1.92;;;26.70;99.90;;;;;;5110594;28;20245;-77
2022/09/04 09:45:07;;;;;;;2.47;1.90;;;26.20;99.90;;;;;;5110229;28;20716;-77
2022/09/04 09:47:56;;;;;;;1.90;1.80;;;26.20;99.90;;;;;;5082664;28;20199;-77
2022/09/04 09:51:00;;;;;;;2.17;1.98;;;25.20;99.90;;;;;;5112539;28;20231;-78
2022/09/04 09:54:04;;;;;;;1.95;1.85;;;26.20;99.90;;;;;;5114387;28;20192;-77
2022/09/04 09:57:13;;;;;;;2.05;1.95;;;26.50;99.90;;;;;;5113930;28;20231;-77
2022/09/04 10:00:07;;;;;;;3.28;2.20;;;26.40;99.90;;;;;;5114285;28;20196;-77
2022/09/04 10:03:01;;;;;;;3.35;1.90;;;26.90;99.90;;;;;;5114688;28;20199;-76
2022/09/04 10:05:50;;;;;;;5.15;2.30;;;26.80;99.90;;;;;;5114472;28;20547;-79
2022/09/04 10:08:48;;;;;;;2.35;2.03;;;26.30;99.90;;;;;;5114221;28;20207;-79
2022/09/04 10:11:35;;;;;;;2.47;2.28;;;25.80;99.90;;;;;;5080062;28;20694;-79
2022/09/04 10:14:31;;;;;;;2.53;2.33;;;25.00;99.90;;;;;;5114019;28;20203;-78
2022/09/04 10:17:34;;;;;;;2.22;2.10;;;24.90;99.90;;;;;;5113831;28;20200;-79
2022/09/04 10:20:40;;;;;;;2.03;1.92;;;24.80;99.90;;;;;;5113507;28;20719;-79
2022/09/04 10:23:35;;;;;;;2.60;2.40;;;24.40;99.90;;;;;;5108669;28;20276;-79
2022/09/04 10:26:48;;;;;;;3.72;2.83;;;24.00;99.90;;;;;;5113895;28;20204;-78
2022/09/04 10:29:32;;;;;;;2.83;2.25;;;23.90;99.90;;;;;;5113041;28;20268;-80
2022/09/04 10:32:28;;;;;;;2.40;2.20;;;23.60;99.90;;;;;;5113258;28;20543;-78
2022/09/04 10:35:24;;;;;;;2.25;2.05;;;23.60;99.90;;;;;;5107442;28;20285;-78
2022/09/04 10:38:06;;;;;;;3.20;2.45;;;23.40;99.90;;;;;;5113262;28;20208;-78
2022/09/04 10:40:43;;;;;;;2.70;2.50;;;23.20;99.90;;;;;;5113379;28;20207;-78
2022/09/04 10:43:57;;;;;;;2.85;2.40;;;23.20;99.90;;;;;;5113333;28;20206;-78
2022/09/04 10:46:26;;;;;;;3.88;2.85;;;23.40;99.90;;;;;;5113339;28;20199;-78
2022/09/04 10:49:29;;;;;;;2.88;2.55;;;24.00;99.90;;;;;;5113081;28;20659;-79
2022/09/04 10:52:27;;;;;;;2.50;2.30;;;24.90;99.90;;;;;;5100601;28;20999;-79
2022/09/04 10:55:20;;;;;;;3.22;2.35;;;25.30;99.90;;;;;;5112437;28;20228;-79
2022/09/04 10:58:25;;;;;;;2.53;2.08;;;27.10;99.90;;;;;;5081245;28;20204;-77
2022/09/04 11:01:13;;;;;;;2.65;1.90;;;29.30;99.90;;;;;;5091094;28;20639;-78
2022/09/04 11:04:00;;;;;;;1.80;1.70;;;30.10;99.90;;;;;;5112823;28;20203;-79
2022/09/04 11:07:08;;;;;;;2.08;1.75;;;32.00;99.90;;;;;;5113212;28;20600;-79
2022/09/04 11:09:53;;;;;;;1.50;1.40;;;33.00;95.10;;;;;;5115177;28;20555;-79
2022/09/04 11:12:38;;;;;;;1.80;1.40;;;34.00;91.20;;;;;;5115511;28;20263;-78
2022/09/04 11:15:26;;;;;;;2.70;1.60;;;35.00;85.20;;;;;;5115318;28;20252;-77
2022/09/04 11:18:21;;;;;;;2.08;1.73;;;34.10;74.40;;;;;;5115098;28;20236;-76
2022/09/04 11:21:28;;;;;;;1.85;1.75;;;34.90;75.60;;;;;;5115192;28;20195;-77
2022/09/04 11:24:32;;;;;;;1.70;1.60;;;35.60;70.00;;;;;;5114857;28;20241;-78
2022/09/04 11:27:46;;;;;;;3.00;1.70;;;32.90;67.00;;;;;;5115054;28;20205;-78
2022/09/04 11:30:18;;;;;;;3.08;1.73;;;32.00;72.60;;;;;;5100132;28;20217;-76
2022/09/04 11:33:35;;;;;;;2.00;1.80;;;31.00;71.80;;;;;;5115147;28;20202;-77
2022/09/04 11:36:52;;;;;;;2.80;1.80;;;31.10;73.70;;;;;;5114921;28;20196;-77
2022/09/04 11:39:55;;;;;;;1.73;1.63;;;32.00;72.10;;;;;;5114093;28;20244;-77
2022/09/04 11:42:41;;;;;;;1.70;1.60;;;31.80;71.10;;;;;;5089092;28;20240;-77
2022/09/04 11:45:29;;;;;;;1.70;1.60;;;32.00;69.90;;;;;;5114723;28;20653;-77
2022/09/04 11:48:26;;;;;;;2.55;1.90;;;32.50;72.60;;;;;;5114872;28;20199;-77
2022/09/04 11:51:24;;;;;;;1.90;1.80;;;31.80;70.60;;;;;;5114620;28;20276;-77
2022/09/04 11:54:38;;;;;;;1.95;1.67;;;32.40;71.20;;;;;;5114537;28;20195;-77
2022/09/04 11:57:15;;;;;;;2.70;1.65;;;34.10;67.60;;;;;;5031824;28;20357;-77
2022/09/04 12:00:02;;;;;;;2.85;1.70;;;32.80;66.90;;;;;;5100647;28;20199;-77
2022/09/04 12:02:46;;;;;;;4.03;1.80;;;32.50;70.70;;;;;;5114405;28;20684;-77
2022/09/04 12:05:37;;;;;;;3.22;2.05;;;31.50;69.70;;;;;;5114490;28;20244;-77
2022/09/04 12:08:19;;;;;;;2.22;1.80;;;31.10;71.80;;;;;;5114331;28;20238;-77
2022/09/04 12:11:02;;;;;;;1.80;1.70;;;32.00;69.60;;;;;;5114365;28;20279;-77
2022/09/04 12:13:44;;;;;;;3.13;1.75;;;32.20;69.00;;;;;;5113176;28;20199;-77
2022/09/04 12:16:45;;;;;;;2.20;2.00;;;32.10;68.30;;;;;;5114037;28;20225;-77
2022/09/04 12:19:44;;;;;;;2.50;1.80;;;32.50;69.10;;;;;;5114010;28;20230;-77
2022/09/04 12:22:35;;;;;;;2.10;1.90;;;32.20;68.80;;;;;;5113899;28;20199;-76
2022/09/04 12:25:14;;;;;;;3.15;1.80;;;32.10;68.80;;;;;;5114111;28;20241;-76
2022/09/04 12:28:03;;;;;;;3.88;1.85;;;33.30;68.20;;;;;;5113691;28;20557;-77
2022/09/04 12:30:36;;;;;;;1.90;1.70;;;33.40;66.00;;;;;;5113602;28;20223;-76
2022/09/04 12:33:27;;;;;;;1.90;1.80;;;34.20;65.00;;;;;;5113974;28;20248;-76
2022/09/04 12:36:32;;;;;;;4.13;1.90;;;33.30;64.60;;;;;;5113422;28;20202;-76
2022/09/04 12:39:31;;;;;;;2.13;2.00;;;31.50;67.00;;;;;;5113378;28;20539;-76
2022/09/04 12:42:05;;;;;;;3.65;2.03;;;29.80;72.10;;;;;;5113597;28;20200;-75
2022/09/04 12:44:43;;;;;;;2.15;2.00;;;29.10;72.60;;;;;;5113549;28;20241;-78
2022/09/04 12:47:31;;;;;;;2.10;1.90;;;27.50;78.80;;;;;;5113523;28;20240;-77
2022/09/04 12:50:17;;;;;;;2.55;2.15;;;26.90;83.00;;;;;;5113431;28;20226;-77
2022/09/04 12:53:16;;;;;;;2.00;1.90;;;26.20;87.30;;;;;;5113320;28;20647;-77
2022/09/04 12:55:48;;;;;;;2.33;2.13;;;25.80;88.90;;;;;;5113150;28;20280;-77
2022/09/04 12:58:32;;;;;;;2.25;2.00;;;25.90;91.80;;;;;;5113375;28;20196;-77
2022/09/04 13:01:12;;;;;;;2.40;2.20;;;25.60;93.00;;;;;;5113302;28;20199;-77
2022/09/04 13:03:49;;;;;;;2.83;2.00;;;25.50;94.10;;;;;;5113226;28;20195;-77
2022/09/04 13:06:26;;;;;;;2.47;2.28;;;25.50;95.00;;;;;;5113020;28;20191;-77
2022/09/04 13:09:06;;;;;;;2.15;2.03;;;25.20;94.70;;;;;;5113298;28;20199;-77
2022/09/04 13:11:50;;;;;;;2.05;1.95;;;24.70;96.00;;;;;;5113132;28;20276;-76
2022/09/04 13:14:39;;;;;;;2.35;2.15;;;25.00;96.80;;;;;;5113019;28;20191;-77
2022/09/04 13:17:16;;;;;;;2.13;1.92;;;24.90;97.40;;;;;;5113082;28;20536;-77
2022/09/04 13:19:52;;;;;;;2.17;2.00;;;25.20;97.30;;;;;;5113232;28;20535;-77
2022/09/04 13:22:29;;;;;;;2.22;2.00;;;25.30;97.20;;;;;;5113075;28;20290;-77
2022/09/04 13:25:07;;;;;;;1.85;1.75;;;25.40;96.90;;;;;;5114562;28;20199;-77
2022/09/04 13:27:49;;;;;;;3.45;2.20;;;25.50;96.80;;;;;;5117422;28;20199;-77
2022/09/04 13:30:20;;;;;;;1.92;1.80;;;25.40;97.10;;;;;;5117166;28;20689;-77
2022/09/04 13:33:17;;;;;;;3.00;2.10;;;25.40;97.80;;;;;;5117206;28;20551;-77
2022/09/04 13:36:01;;;;;;;2.40;2.10;;;24.90;98.70;;;;;;5108793;28;20268;-77
2022/09/04 13:38:50;;;;;;;3.55;2.10;;;25.10;99.10;;;;;;5117153;28;20532;-77
2022/09/04 13:41:42;;;;;;;2.97;2.30;;;25.60;98.70;;;;;;5117062;27;20708;-77
2022/09/04 13:44:29;;;;;;;2.67;2.35;;;26.00;98.10;;;;;;5117001;28;20199;-77
2022/09/04 13:47:02;;;;;;;2.25;2.05;;;26.80;97.20;;;;;;5116928;28;20200;-77
2022/09/04 13:49:34;;;;;;;2.22;2.03;;;27.00;96.60;;;;;;5116904;28;20245;-76
2022/09/04 13:52:06;;;;;;;1.98;1.80;;;27.60;96.00;;;;;;5116550;28;20230;-76
2022/09/04 13:54:37;;;;;;;2.85;2.00;;;28.10;95.00;;;;;;5116689;28;20196;-76
2022/09/04 13:57:09;;;;;;;1.98;1.85;;;28.60;93.90;;;;;;5116505;28;20240;-76
2022/09/04 13:59:37;;;;;;;3.17;1.85;;;28.50;92.90;;;;;;5116552;28;20221;-76
2022/09/04 14:02:08;;;;;;;2.63;2.08;;;28.40;93.60;;;;;;5116474;27;20245;-76
2022/09/04 14:04:38;;;;;;;2.83;1.98;;;28.50;93.20;;;;;;5116491;28;20210;-76
2022/09/04 14:07:13;;;;;;;2.20;1.70;;;28.70;92.30;;;;;;5116560;28;20283;-76
2022/09/04 14:09:44;;;;;;;1.98;1.77;;;30.70;91.10;;;;;;5116553;28;20195;-76